Adams Mills, OH

7:53 AM EST on November 24, 2014 (GMT -0500)
Clever | Change Station
CLOSE
Current Station
Airport
Location: New Philadelphia,
Elevation: 892 ft
Nearby Weather Stations
Active Advisory: Wind Advisory Active Notice: Public Information Statement

Elev 892 ft 40.47 °N, 81.42 °W | Updated 1 hour ago

Overcast
Overcast
61 °F
Feels Like 61 °F
N
13
Wind Variable Wind from SSW
Gusts 26 mph

Today
High -- | Low -- °F
--% Chance of Precip.
Yesterday
High -- | Low -- °F
Precip. -- in
7:23 AM 5:05 PM
Waxing Crescent, 5% visible
Pressure 29.39 in
Visibility 10.0 miles
Clouds Scattered Clouds 2300 ft
Mostly Cloudy 3000 ft
Overcast 3700 ft
Dew Point 54 °F
Humidity 78%
Rainfall 0.05 in
Snow Depth Not available.
UV 0 out of 12
Pollen .10 out of 12
Air Quality Not available.
Flu Activity Not available.
METAR KPHD 241153Z AUTO 20011G23KT 170V230 10SM SCT023 BKN030 OVC037 16/12 A2939 RMK AO2 SLP950 60004 70037 T01610122 10161 20144 50010

More Conditions Fewer Conditions

Pressure 29.39 in
Visibility 10.0 miles
Clouds Scattered Clouds 2300 ft
Mostly Cloudy 3000 ft
Overcast 3700 ft
Dew Point 54 °F
Humidity 78%
Rainfall 0.05 in
Snow Depth Not available.
UV 0 out of 12
Pollen .10 out of 12
Air Quality Not available.
Flu Activity Not available.
METAR KPHD 241153Z AUTO 20011G23KT 170V230 10SM SCT023 BKN030 OVC037 16/12 A2939 RMK AO2 SLP950 60004 70037 T01610122 10161 20144 50010

More Conditions Fewer Conditions

10-Day Weather Forecast

Almanac

Astronomy

Nov. 24, 2014 Rise Set
Actual Time
Civil Twilight
Nautical Twilight
Astronomical Twilight
Moon
Length of Visible Light
Length of Day
Tomorrow will be .
, % of the Moon is Illuminated

Today's Extremes

State Highs State Lows

Community

WunderPhotos

Upload Photos

1,773,320 photos uploaded!

WunderBlogs® & News

Nearby

Air Quality

  Air Quality AQ Index Pollutant
Not available.

Snow Depth

Station Depth Elevation

Earthquake Activity

City Distance Mag. Time & Date
Minimum magnitude displayed is 2.5.

Coastal Water Temperatures

Place Temperature

Nearby Weather Stations